createdAt,value
2023-03-29T05:05:15.602Z,21.23
2023-03-29T05:06:16.624Z,21.25
2023-03-29T05:08:15.719Z,21.28
2023-03-29T05:09:16.718Z,21.28
2023-03-29T05:11:15.722Z,21.29
2023-03-29T05:12:16.788Z,21.29
2023-03-29T05:13:16.847Z,21.29
2023-03-29T05:18:16.051Z,21.28
2023-03-29T05:19:17.116Z,21.29
2023-03-29T05:20:17.135Z,21.29
2023-03-29T05:22:16.176Z,21.28
2023-03-29T05:23:17.210Z,21.29
2023-03-29T05:24:17.226Z,21.28
2023-03-29T05:25:17.290Z,21.27
2023-03-29T05:26:17.317Z,21.27
2023-03-29T05:27:17.370Z,21.28
2023-03-29T05:28:17.432Z,21.28
2023-03-29T05:29:17.489Z,21.28
2023-03-29T05:30:17.550Z,21.28
2023-03-29T05:31:17.645Z,21.30
2023-03-29T05:32:17.641Z,21.32
2023-03-29T05:33:17.695Z,21.33
2023-03-29T05:34:17.714Z,21.35
2023-03-29T05:35:17.782Z,21.36
2023-03-29T05:38:16.828Z,21.40
2023-03-29T05:39:16.836Z,21.41
2023-03-29T05:40:17.848Z,21.42
2023-03-29T05:41:17.896Z,21.43
2023-03-29T05:42:17.869Z,21.45
2023-03-29T05:44:16.867Z,21.47
2023-03-29T05:45:17.853Z,21.48
2023-03-29T05:46:18.009Z,21.49
2023-03-29T05:49:16.866Z,21.50
2023-03-29T05:50:17.894Z,21.47
2023-03-29T05:51:17.950Z,21.48
2023-03-29T05:55:16.978Z,21.49
2023-03-29T05:56:18.009Z,21.52
2023-03-29T05:57:17.101Z,21.56
2023-03-29T05:58:18.095Z,21.61
2023-03-29T05:59:17.106Z,21.63
2023-03-29T06:00:17.127Z,21.64
2023-03-29T06:01:18.302Z,21.67
2023-03-29T06:03:21.170Z,21.74
2023-03-29T06:04:18.353Z,21.79
2023-03-29T06:05:18.273Z,21.84
2023-03-29T06:07:17.223Z,21.92
2023-03-29T06:10:17.165Z,21.98
2023-03-29T06:11:17.293Z,22.00
2023-03-29T06:12:18.165Z,22.04
2023-03-29T06:13:18.150Z,22.06
2023-03-29T06:14:17.148Z,22.09
2023-03-29T06:15:18.148Z,22.12
2023-03-29T06:16:17.201Z,22.11
2023-03-29T06:17:18.171Z,22.14
2023-03-29T06:19:17.137Z,22.18
2023-03-29T06:20:17.188Z,22.16
2023-03-29T06:21:17.211Z,22.17
2023-03-29T06:22:18.275Z,22.18
2023-03-29T06:23:18.352Z,22.19
2023-03-29T06:26:17.477Z,22.23
2023-03-29T06:27:18.551Z,22.25
2023-03-29T06:28:17.597Z,22.28
2023-03-29T06:29:17.646Z,22.32
2023-03-29T06:30:18.837Z,22.34
2023-03-29T06:31:18.842Z,22.36
2023-03-29T06:32:18.872Z,22.37
2023-03-29T06:33:18.930Z,22.36
2023-03-29T06:34:18.878Z,22.35
2023-03-29T06:35:18.887Z,22.30
2023-03-29T06:36:18.971Z,22.34
2023-03-29T06:37:18.931Z,22.38
2023-03-29T06:38:18.973Z,22.40
2023-03-29T06:39:19.059Z,22.41
2023-03-29T06:40:19.128Z,22.43
2023-03-29T06:41:19.191Z,22.41
2023-03-29T06:42:21.659Z,22.39
2023-03-29T06:43:19.228Z,22.39
2023-03-29T06:44:19.241Z,22.42
2023-03-29T06:48:18.170Z,22.41
2023-03-29T06:49:19.253Z,22.41
2023-03-29T06:53:18.155Z,22.38
2023-03-29T06:54:18.145Z,22.36
2023-03-29T06:55:19.178Z,22.38
2023-03-29T06:56:19.121Z,22.40
2023-03-29T06:57:19.345Z,22.39
2023-03-29T06:58:19.113Z,22.40
2023-03-29T06:59:19.114Z,22.40
2023-03-29T07:02:18.077Z,22.38
2023-03-29T07:03:18.055Z,22.41
2023-03-29T07:04:19.125Z,22.44
2023-03-29T07:05:19.069Z,22.43
2023-03-29T07:07:18.028Z,22.25
2023-03-29T07:09:19.432Z,22.04
2023-03-29T07:10:17.998Z,21.93
2023-03-29T07:11:19.069Z,21.82
2023-03-29T07:12:18.123Z,21.81
2023-03-29T07:13:19.051Z,21.82
2023-03-29T07:14:19.159Z,21.82
2023-03-29T07:15:19.097Z,21.85
2023-03-29T07:16:19.391Z,21.86
2023-03-29T07:17:19.184Z,21.89
2023-03-29T07:18:19.204Z,21.90
2023-03-29T07:19:19.278Z,21.93
2023-03-29T07:22:18.418Z,22.07
2023-03-29T07:23:18.473Z,22.14
2023-03-29T07:24:19.546Z,22.18
2023-03-29T07:25:19.619Z,22.19
2023-03-29T07:26:28.705Z,22.20
2023-03-29T07:27:19.667Z,22.20
2023-03-29T07:28:18.628Z,22.23
2023-03-29T07:29:19.627Z,22.26
2023-03-29T07:30:19.660Z,22.26
2023-03-29T07:31:19.623Z,22.25
2023-03-29T07:34:18.599Z,22.28
2023-03-29T07:35:19.582Z,22.29
2023-03-29T07:36:19.638Z,22.32
2023-03-29T07:37:19.585Z,22.32
2023-03-29T07:38:19.739Z,22.31
2023-03-29T07:42:18.554Z,22.28
2023-03-29T07:43:19.594Z,22.27
2023-03-29T07:44:19.544Z,22.28
2023-03-29T07:45:19.516Z,22.30
2023-03-29T07:46:19.789Z,22.31
2023-03-29T07:47:19.834Z,22.31
2023-03-29T07:48:19.504Z,22.32
2023-03-29T07:52:18.851Z,22.26
2023-03-29T07:53:19.527Z,22.23
2023-03-29T07:54:18.532Z,22.21
2023-03-29T07:55:19.589Z,22.20
2023-03-29T07:56:19.652Z,22.20
2023-03-29T08:00:18.982Z,22.22
2023-03-29T08:01:19.672Z,22.23
2023-03-29T08:02:19.978Z,22.23
2023-03-29T08:03:20.118Z,22.23
2023-03-29T08:04:20.210Z,22.26
2023-03-29T08:06:19.150Z,22.27
2023-03-29T08:07:20.206Z,22.28
2023-03-29T08:08:19.245Z,22.28
2023-03-29T08:09:20.316Z,22.26
2023-03-29T08:10:20.364Z,22.28
2023-03-29T08:11:20.414Z,22.29
2023-03-29T08:12:21.598Z,22.30
2023-03-29T08:13:20.467Z,22.29
2023-03-29T08:15:19.469Z,22.30
2023-03-29T08:16:22.471Z,22.27
2023-03-29T08:19:19.429Z,22.26
2023-03-29T08:20:20.412Z,22.26
2023-03-29T08:22:19.407Z,22.25
2023-03-29T08:23:20.408Z,22.25
2023-03-29T08:26:19.380Z,22.18
2023-03-29T08:27:20.375Z,22.18
2023-03-29T08:30:19.370Z,22.17
2023-03-29T08:31:20.563Z,22.16
2023-03-29T08:33:19.380Z,22.14
2023-03-29T08:34:20.319Z,22.12
2023-03-29T08:36:19.348Z,22.08
2023-03-29T08:37:20.319Z,22.06
2023-03-29T08:41:19.293Z,22.00
2023-03-29T08:42:20.366Z,22.00
2023-03-29T08:43:20.308Z,22.01
2023-03-29T08:44:20.263Z,22.01
2023-03-29T08:48:19.235Z,21.99
2023-03-29T08:49:20.245Z,21.99
2023-03-29T08:53:19.208Z,21.97
2023-03-29T08:54:20.175Z,21.96
2023-03-29T08:57:19.215Z,21.95
2023-03-29T08:58:20.477Z,21.94
2023-03-29T08:59:20.144Z,21.94
2023-03-29T09:03:19.256Z,21.95
2023-03-29T09:04:19.100Z,21.94
2023-03-29T09:06:19.099Z,21.93
2023-03-29T09:07:19.104Z,21.92
2023-03-29T09:08:20.090Z,21.93
2023-03-29T09:09:20.139Z,21.92
2023-03-29T09:10:20.159Z,21.91
2023-03-29T09:11:20.194Z,21.92
2023-03-29T09:12:20.244Z,21.91
2023-03-29T09:13:20.358Z,21.91
2023-03-29T09:14:20.271Z,21.91
2023-03-29T09:16:19.333Z,21.89
2023-03-29T09:17:20.279Z,21.89
2023-03-29T09:19:19.302Z,21.89
2023-03-29T09:20:19.321Z,21.88
2023-03-29T09:21:20.328Z,21.88
2023-03-29T09:22:20.362Z,21.89
2023-03-29T09:23:20.369Z,21.88
2023-03-29T09:24:20.446Z,21.89
2023-03-29T09:26:19.460Z,21.88
2023-03-29T09:27:20.523Z,21.88
2023-03-29T09:29:19.499Z,21.87
2023-03-29T09:32:19.485Z,21.87
2023-03-29T09:33:20.534Z,21.87
2023-03-29T09:34:20.545Z,21.87
2023-03-29T09:35:20.640Z,21.86
2023-03-29T09:37:19.612Z,21.86
2023-03-29T09:38:20.650Z,21.85
2023-03-29T09:40:19.656Z,21.85
2023-03-29T09:41:20.777Z,21.84
2023-03-29T09:42:20.698Z,21.84
2023-03-29T09:43:20.719Z,21.85
2023-03-29T09:44:30.169Z,21.84
2023-03-29T09:45:20.766Z,21.83
2023-03-29T09:46:19.785Z,21.84
2023-03-29T09:47:20.740Z,21.83
2023-03-29T09:49:19.711Z,21.83
2023-03-29T09:50:30.747Z,21.83
2023-03-29T09:51:20.727Z,21.82
2023-03-29T09:52:20.707Z,21.81
2023-03-29T09:53:20.891Z,21.81
2023-03-29T09:55:19.703Z,21.81
2023-03-29T09:56:20.669Z,21.86
2023-03-29T10:01:19.694Z,21.95
2023-03-29T10:03:19.630Z,22.03
2023-03-29T10:04:19.678Z,22.07
2023-03-29T10:05:20.640Z,22.10
2023-03-29T10:09:19.585Z,22.20
2023-03-29T10:10:20.573Z,22.22
2023-03-29T10:11:20.616Z,22.23
2023-03-29T10:15:29.206Z,22.22
2023-03-29T10:16:20.632Z,22.22
2023-03-29T10:17:20.618Z,22.24
2023-03-29T10:19:19.515Z,22.26
2023-03-29T10:20:20.536Z,22.29
2023-03-29T10:21:20.785Z,22.30
2023-03-29T10:25:19.500Z,22.35
2023-03-29T10:26:20.469Z,22.37
2023-03-29T10:27:20.495Z,22.40
2023-03-29T10:29:19.479Z,22.43
2023-03-29T10:32:19.458Z,22.45
2023-03-29T10:33:20.431Z,22.45
2023-03-29T10:34:20.415Z,22.47
2023-03-29T10:36:19.471Z,22.50
2023-03-29T10:37:20.452Z,22.48
2023-03-29T10:38:20.444Z,22.49
2023-03-29T10:39:20.445Z,22.49
2023-03-29T10:41:19.443Z,22.51
2023-03-29T10:42:20.375Z,22.50
2023-03-29T10:43:20.394Z,22.50
2023-03-29T10:44:21.207Z,22.52
2023-03-29T10:45:20.438Z,22.53
2023-03-29T10:46:20.596Z,22.54
2023-03-29T10:47:20.516Z,22.57
2023-03-29T10:48:20.527Z,22.59
2023-03-29T10:49:19.916Z,22.60
2023-03-29T10:50:20.590Z,22.59
2023-03-29T10:51:20.596Z,22.58
2023-03-29T10:52:20.579Z,22.61
2023-03-29T10:53:20.576Z,22.60
2023-03-29T10:54:20.590Z,22.59
2023-03-29T10:55:20.656Z,22.59
2023-03-29T10:56:20.654Z,22.59
2023-03-29T10:57:22.794Z,22.57
2023-03-29T10:58:20.691Z,22.56
2023-03-29T11:01:19.665Z,22.56
2023-03-29T11:02:20.665Z,22.58
2023-03-29T11:03:21.592Z,22.57
2023-03-29T11:04:20.634Z,22.58
2023-03-29T11:05:20.648Z,22.59
2023-03-29T11:10:19.781Z,22.58
2023-03-29T11:11:20.861Z,22.59
2023-03-29T11:12:20.901Z,22.61
2023-03-29T11:13:20.946Z,22.62
2023-03-29T11:14:21.034Z,22.61
2023-03-29T11:15:20.084Z,22.64
2023-03-29T11:16:21.215Z,22.66
2023-03-29T11:17:21.210Z,22.65
2023-03-29T11:18:21.258Z,22.64
2023-03-29T11:19:21.325Z,22.64
2023-03-29T11:20:21.375Z,22.66
2023-03-29T11:21:21.421Z,22.66
2023-03-29T11:22:21.490Z,22.66
2023-03-29T11:23:21.516Z,22.65
2023-03-29T11:25:20.556Z,22.64
2023-03-29T11:26:21.595Z,22.62
2023-03-29T11:27:20.671Z,22.61
2023-03-29T11:28:21.727Z,22.61
2023-03-29T11:29:21.853Z,22.58
2023-03-29T11:30:21.850Z,22.52
2023-03-29T11:34:20.916Z,21.17
2023-03-29T11:35:21.899Z,21.28
2023-03-29T11:36:21.991Z,21.39
2023-03-29T11:37:22.000Z,21.47
2023-03-29T11:38:22.036Z,21.54
2023-03-29T11:39:22.417Z,21.60
2023-03-29T11:42:21.101Z,21.76
2023-03-29T11:43:22.105Z,21.80
2023-03-29T11:44:22.085Z,21.84
2023-03-29T11:45:21.058Z,21.87
2023-03-29T11:46:22.147Z,21.89
2023-03-29T11:47:22.107Z,21.93
2023-03-29T11:48:22.178Z,21.96
2023-03-29T11:49:22.197Z,21.98
2023-03-29T11:50:22.220Z,22.00
2023-03-29T11:51:22.292Z,22.00
2023-03-29T11:52:22.341Z,22.03
2023-03-29T11:53:22.403Z,22.03
2023-03-29T11:54:22.462Z,22.04
2023-03-29T11:55:22.540Z,22.04
2023-03-29T11:56:22.578Z,22.07
2023-03-29T11:57:21.721Z,22.07
2023-03-29T11:58:22.697Z,22.07
2023-03-29T11:59:22.772Z,22.08
2023-03-29T12:00:22.830Z,22.08
2023-03-29T12:01:22.909Z,22.09
2023-03-29T12:02:23.004Z,22.09
2023-03-29T12:03:23.113Z,22.08
2023-03-29T12:04:25.196Z,22.07
2023-03-29T12:07:22.074Z,22.08
2023-03-29T12:08:23.033Z,22.09
2023-03-29T12:10:22.025Z,22.09
2023-03-29T12:11:23.028Z,22.08
2023-03-29T12:12:23.006Z,22.08
2023-03-29T12:14:22.020Z,22.06
2023-03-29T12:15:23.008Z,22.07
2023-03-29T12:17:22.027Z,22.07
2023-03-29T12:18:22.973Z,22.06
2023-03-29T12:19:22.001Z,22.07
2023-03-29T12:20:22.939Z,22.06
2023-03-29T12:21:22.969Z,22.07
2023-03-29T12:22:22.936Z,22.06
2023-03-29T12:25:23.370Z,22.06
2023-03-29T12:26:22.902Z,22.06
2023-03-29T12:27:22.913Z,22.06
2023-03-29T12:28:23.026Z,22.05
2023-03-29T12:29:23.035Z,22.05
2023-03-29T12:30:23.068Z,22.05
2023-03-29T12:31:23.191Z,22.06
2023-03-29T12:32:23.213Z,22.06
2023-03-29T12:33:23.315Z,22.05
2023-03-29T12:34:22.312Z,22.04
2023-03-29T12:35:23.378Z,22.04
2023-03-29T12:36:22.434Z,22.05
2023-03-29T12:37:23.553Z,22.04
2023-03-29T12:38:23.562Z,22.04
2023-03-29T12:39:23.648Z,22.04
2023-03-29T12:40:23.671Z,22.04
2023-03-29T12:41:22.741Z,22.04
2023-03-29T12:42:23.794Z,22.04
2023-03-29T12:43:23.877Z,22.03
2023-03-29T12:47:23.134Z,22.02
2023-03-29T12:48:24.159Z,22.01
2023-03-29T12:49:24.230Z,22.02
2023-03-29T12:50:24.315Z,22.01
2023-03-29T12:51:24.389Z,22.01
2023-03-29T12:52:23.388Z,22.01
2023-03-29T12:53:24.473Z,22.01
2023-03-29T12:54:26.812Z,22.02
2023-03-29T12:55:24.558Z,22.02
2023-03-29T12:56:23.512Z,22.01
2023-03-29T12:57:24.566Z,22.02
2023-03-29T13:00:23.511Z,22.02
2023-03-29T13:03:23.517Z,22.01
2023-03-29T13:04:24.471Z,22.01
2023-03-29T13:08:23.453Z,22.01
2023-03-29T13:13:23.480Z,21.99
2023-03-29T13:14:24.525Z,22.00
2023-03-29T13:15:24.584Z,21.99
2023-03-29T13:16:24.706Z,21.98
2023-03-29T13:17:24.844Z,21.98
2023-03-29T13:18:23.743Z,21.99
2023-03-29T13:19:24.826Z,22.00
2023-03-29T13:20:24.880Z,21.99
2023-03-29T13:21:24.948Z,21.99
2023-03-29T13:22:24.983Z,22.00
2023-03-29T13:23:25.057Z,22.00
2023-03-29T13:24:25.092Z,22.00
2023-03-29T13:25:25.145Z,22.00
2023-03-29T13:26:25.205Z,22.00
2023-03-29T13:27:25.253Z,22.01
2023-03-29T13:28:25.325Z,22.00
2023-03-29T13:29:25.385Z,22.00
2023-03-29T13:30:25.467Z,22.00
2023-03-29T13:31:25.508Z,21.99
2023-03-29T13:32:25.593Z,21.99
2023-03-29T13:33:25.613Z,21.99
2023-03-29T13:36:24.807Z,21.98
2023-03-29T13:37:25.856Z,21.98
2023-03-29T13:38:25.937Z,21.98
2023-03-29T13:39:25.954Z,21.97
2023-03-29T13:40:26.023Z,21.97
2023-03-29T13:41:26.086Z,21.97
2023-03-29T13:42:26.146Z,21.97
2023-03-29T13:43:26.201Z,21.96
2023-03-29T13:44:26.235Z,21.96
2023-03-29T13:45:26.241Z,21.97
2023-03-29T13:46:28.027Z,21.96
2023-03-29T13:47:26.268Z,21.95
2023-03-29T13:48:26.279Z,21.95
2023-03-29T13:49:26.247Z,21.94
2023-03-29T13:51:25.250Z,21.95
2023-03-29T13:52:26.211Z,21.94
2023-03-29T13:54:25.199Z,21.96
2023-03-29T13:55:26.200Z,21.96
2023-03-29T14:00:25.479Z,21.94
2023-03-29T14:01:26.182Z,21.94
2023-03-29T14:02:25.222Z,21.94
2023-03-29T14:03:26.206Z,21.94
2023-03-29T14:04:26.162Z,21.94
2023-03-29T14:09:25.113Z,21.93
2023-03-29T14:10:25.153Z,21.93
2023-03-29T14:11:26.087Z,21.92
2023-03-29T14:12:26.068Z,21.93
2023-03-29T14:13:26.072Z,21.91
2023-03-29T14:16:25.082Z,21.91
2023-03-29T14:17:26.063Z,21.91
2023-03-29T14:18:26.028Z,21.91
2023-03-29T14:22:25.007Z,21.90
2023-03-29T14:23:26.028Z,21.90
2023-03-29T14:29:25.656Z,21.90
2023-03-29T14:30:25.963Z,21.88
2023-03-29T14:31:26.042Z,21.89
2023-03-29T14:32:24.967Z,21.89
2023-03-29T14:33:25.938Z,21.89
2023-03-29T14:37:24.900Z,21.89
2023-03-29T14:38:25.896Z,21.89
2023-03-29T14:39:25.936Z,21.88
2023-03-29T14:41:24.882Z,21.88
2023-03-29T14:42:25.938Z,21.89
2023-03-29T14:47:24.893Z,21.88
2023-03-29T14:48:24.886Z,21.87
2023-03-29T14:49:25.880Z,21.87
2023-03-29T14:50:25.888Z,21.87
2023-03-29T14:53:24.863Z,21.87
2023-03-29T14:54:25.858Z,21.88
2023-03-29T14:55:25.917Z,21.87
2023-03-29T14:56:25.868Z,21.87
2023-03-29T15:02:25.023Z,21.87
2023-03-29T15:03:25.984Z,21.87
2023-03-29T15:04:25.858Z,21.87
2023-03-29T15:05:25.867Z,21.87
2023-03-29T15:11:24.907Z,21.68
2023-03-29T15:12:25.905Z,21.61
2023-03-29T15:13:25.960Z,21.46
2023-03-29T15:14:25.983Z,21.41
2023-03-29T15:15:26.197Z,21.32
2023-03-29T15:16:26.116Z,20.67
2023-03-29T15:17:31.309Z,20.54
2023-03-29T15:22:25.098Z,20.00
2023-03-29T15:23:26.111Z,19.99
2023-03-29T15:26:25.105Z,20.36
2023-03-29T15:27:26.544Z,20.45
